Time;durP1;ratioP1;P1;durP2;ratioP2;P2;SDS_P1;SDS_P2;PMS_P1;PMS_P2;Temp;Humidity;BMP_temperature;BMP_pressure;BME280_temperature;BME280_humidity;BME280_pressure;Samples;Min_cycle;Max_cycle;Signal;HPM_P1;HPM_P2
2023/07/27 00:01:33;;;;;;;1.67;1.53;;;17.00;73.10;15.90;96446.00;;;;5068790;28;20890;-81
2023/07/27 00:04:00;;;;;;;1.67;1.57;;;17.00;73.10;15.90;96448.00;;;;5071649;28;20279;-82
2023/07/27 00:06:27;;;;;;;1.50;1.40;;;16.90;73.10;15.80;96439.00;;;;5055087;28;20212;-81
2023/07/27 00:08:56;;;;;;;3.87;2.50;;;16.90;73.20;15.80;96449.00;;;;5072734;28;20263;-81
2023/07/27 00:11:24;;;;;;;2.10;1.57;;;16.80;73.00;15.80;96448.00;;;;5083963;28;20290;-80
2023/07/27 00:13:51;;;;;;;2.33;1.80;;;16.80;73.00;15.70;96445.00;;;;5081282;28;20224;-80
2023/07/27 00:16:18;;;;;;;1.40;1.30;;;16.70;73.10;15.70;96442.00;;;;5075667;28;20218;-80
2023/07/27 00:18:47;;;;;;;2.13;1.53;;;16.70;73.30;15.70;96439.00;;;;5083075;28;20200;-80
2023/07/27 00:21:14;;;;;;;1.17;1.07;;;16.70;73.30;15.60;96434.00;;;;5084310;28;20189;-81
2023/07/27 00:23:41;;;;;;;1.73;1.63;;;16.70;73.50;15.60;96437.00;;;;5085395;28;20672;-80
2023/07/27 00:26:08;;;;;;;1.50;1.40;;;16.60;73.40;15.60;96436.00;;;;5089229;28;20215;-81
2023/07/27 00:28:35;;;;;;;1.63;1.40;;;16.60;73.20;15.50;96435.00;;;;5077747;28;20579;-81
2023/07/27 00:31:03;;;;;;;1.50;1.40;;;16.60;73.20;15.50;96423.00;;;;5084788;28;20196;-82
2023/07/27 00:33:30;;;;;;;1.50;1.40;;;16.50;73.10;15.50;96424.00;;;;5071809;28;20303;-81
2023/07/27 00:36:00;;;;;;;2.43;1.50;;;16.50;73.10;15.40;96423.00;;;;5078154;28;20216;-81
2023/07/27 00:38:28;;;;;;;2.57;1.70;;;16.50;73.10;15.40;96431.00;;;;5078498;28;20191;-82
2023/07/27 00:40:55;;;;;;;1.67;1.57;;;16.40;73.10;15.30;96435.00;;;;5068397;28;20198;-81
2023/07/27 00:43:23;;;;;;;1.70;1.60;;;16.40;73.30;15.30;96432.00;;;;5070111;28;20207;-82
2023/07/27 00:45:51;;;;;;;1.40;1.30;;;16.30;73.30;15.20;96428.00;;;;5071246;28;20277;-81
2023/07/27 00:48:19;;;;;;;1.57;1.43;;;16.30;73.20;15.20;96428.00;;;;5076721;28;20574;-82
2023/07/27 00:50:47;;;;;;;1.40;1.30;;;16.30;73.30;15.20;96431.00;;;;5073652;28;20202;-82
2023/07/27 00:53:17;;;;;;;3.50;1.30;;;16.30;73.50;15.20;96425.00;;;;5075185;28;20223;-83
2023/07/27 00:55:46;;;;;;;1.67;1.30;;;16.20;73.50;15.10;96424.00;;;;5079533;28;20195;-82
2023/07/27 00:58:14;;;;;;;2.30;1.60;;;16.20;73.50;15.10;96415.00;;;;5071149;28;20195;-81
2023/07/27 01:00:43;;;;;;;1.97;1.40;;;16.20;73.50;15.10;96414.00;;;;5079885;28;20245;-80
2023/07/27 01:03:10;;;;;;;1.93;1.37;;;16.20;73.60;15.10;96410.00;;;;5082646;28;20208;-82
2023/07/27 01:05:37;;;;;;;1.40;1.30;;;16.10;73.60;15.00;96413.00;;;;5084838;28;20234;-81
2023/07/27 01:08:05;;;;;;;4.07;3.00;;;16.10;73.50;15.00;96414.00;;;;5087633;28;20287;-81
2023/07/27 01:10:58;;;;;;;3.70;2.97;;;16.10;73.60;15.00;96410.00;;;;5079163;28;20772;-80
2023/07/27 01:13:34;;;;;;;4.03;2.33;;;16.00;74.30;14.90;96404.00;;;;5083189;28;20222;-81
2023/07/27 01:16:12;;;;;;;5.43;3.50;;;16.00;73.50;14.90;96402.00;;;;5085405;28;20214;-81
2023/07/27 01:18:52;;;;;;;4.67;2.50;;;16.00;74.20;14.90;96398.00;;;;5079667;28;20200;-82
2023/07/27 01:21:26;;;;;;;4.27;1.90;;;16.00;73.50;14.90;96396.00;;;;5084000;28;20191;-81
2023/07/27 01:24:35;;;;;;;1.57;1.47;;;15.90;73.50;14.80;96390.00;;;;5070945;28;20207;-81
2023/07/27 01:27:36;;;;;;;1.80;1.70;;;15.90;73.70;14.80;96388.00;;;;5068960;28;20848;-82
2023/07/27 01:30:49;;;;;;;2.63;2.17;;;15.90;73.50;14.70;96397.00;;;;5074342;28;20202;-82
2023/07/27 01:33:22;;;;;;;2.07;1.50;;;15.90;73.30;14.70;96392.00;;;;5071020;28;20622;-81
2023/07/27 01:36:00;;;;;;;1.50;1.40;;;15.80;73.40;14.70;96391.00;;;;5074702;28;20212;-82
2023/07/27 01:38:31;;;;;;;1.90;1.57;;;15.80;73.40;14.70;96387.00;;;;5082079;28;20197;-81
2023/07/27 01:41:00;;;;;;;1.73;1.60;;;15.80;73.40;14.60;96391.00;;;;5075856;28;20652;-81
2023/07/27 01:43:30;;;;;;;1.80;1.70;;;15.80;73.30;14.60;96386.00;;;;5073860;28;20234;-81
2023/07/27 01:46:02;;;;;;;1.50;1.40;;;15.70;73.50;14.60;96391.00;;;;5079244;28;20693;-82
2023/07/27 01:48:30;;;;;;;1.60;1.47;;;15.70;73.60;14.60;96395.00;;;;5074313;28;20571;-81
2023/07/27 01:50:59;;;;;;;1.60;1.50;;;15.70;73.80;14.50;96389.00;;;;5075546;28;20199;-80
2023/07/27 01:53:29;;;;;;;2.17;1.80;;;15.60;73.70;14.50;96390.00;;;;5087485;28;20212;-81
2023/07/27 01:55:57;;;;;;;2.07;1.83;;;15.60;73.60;14.50;96396.00;;;;5078968;28;20211;-80
2023/07/27 01:58:26;;;;;;;3.33;1.93;;;15.60;73.80;14.50;96388.00;;;;5077448;28;20196;-81
2023/07/27 02:00:55;;;;;;;1.50;1.40;;;15.60;73.90;14.50;96386.00;;;;5081335;28;20196;-80
2023/07/27 02:03:24;;;;;;;1.70;1.57;;;15.60;74.00;14.50;96391.00;;;;5077988;28;20655;-80
2023/07/27 02:05:51;;;;;;;2.17;1.57;;;15.60;74.10;14.50;96384.00;;;;5079838;28;20216;-80
2023/07/27 02:08:18;;;;;;;1.70;1.60;;;15.60;74.00;14.50;96385.00;;;;5070201;28;20277;-81
2023/07/27 02:11:03;;;;;;;1.63;1.30;;;15.60;74.00;14.50;96387.00;;;;5074962;28;20686;-81
2023/07/27 02:13:39;;;;;;;1.03;1.00;;;15.50;74.10;14.50;96382.00;;;;5082028;28;20216;-82
2023/07/27 02:16:17;;;;;;;5.10;3.60;;;15.50;74.70;14.40;96381.00;;;;5078083;28;20332;-81
2023/07/27 02:18:50;;;;;;;2.43;2.20;;;15.50;73.80;14.40;96384.00;;;;5076691;28;20283;-80
2023/07/27 02:21:18;;;;;;;2.37;1.60;;;15.50;73.80;14.40;96377.00;;;;5081986;28;20638;-82
2023/07/27 02:23:47;;;;;;;1.43;1.33;;;15.50;73.80;14.40;96373.00;;;;5071037;28;20291;-83
2023/07/27 02:26:15;;;;;;;1.50;1.40;;;15.50;73.90;14.40;96370.00;;;;5072786;28;20306;-81
2023/07/27 02:28:44;;;;;;;1.67;1.30;;;15.50;74.00;14.40;96371.00;;;;5080827;28;20275;-81
2023/07/27 02:31:11;;;;;;;2.37;2.17;;;15.50;74.00;14.40;96376.00;;;;5055922;28;20200;-81
2023/07/27 02:33:38;;;;;;;9.17;5.23;;;15.50;74.00;14.40;96372.00;;;;5084225;28;20211;-82
2023/07/27 02:36:07;;;;;;;4.57;3.40;;;15.50;73.80;14.40;96365.00;;;;5086379;28;20215;-80
2023/07/27 02:38:34;;;;;;;3.77;3.27;;;15.50;73.80;14.30;96367.00;;;;5082311;28;20202;-80
2023/07/27 02:41:01;;;;;;;46.97;19.00;;;15.50;73.80;14.30;96375.00;;;;5075937;28;20191;-82
2023/07/27 02:43:28;;;;;;;21.77;12.37;;;15.50;73.70;14.30;96372.00;;;;5084646;28;20209;-81
2023/07/27 02:45:59;;;;;;;15.67;8.53;;;15.50;73.50;14.30;96370.00;;;;5082971;28;20216;-81
2023/07/27 02:48:27;;;;;;;7.30;5.20;;;15.50;73.60;14.30;96373.00;;;;5065324;28;20258;-81
2023/07/27 02:50:54;;;;;;;7.57;4.60;;;15.40;73.50;14.20;96365.00;;;;5093662;28;20191;-82
2023/07/27 02:53:23;;;;;;;4.33;2.77;;;15.40;73.50;14.20;96368.00;;;;5042916;28;1297869;-81
2023/07/27 02:56:01;;;;;;;4.10;2.50;;;15.40;73.50;14.20;96371.00;;;;5070475;28;20220;-81
2023/07/27 02:58:28;;;;;;;1.73;1.63;;;15.40;73.40;14.20;96369.00;;;;5062757;28;20279;-80
2023/07/27 03:00:58;;;;;;;1.70;1.60;;;15.40;73.50;14.20;96373.00;;;;5086917;28;20202;-82
2023/07/27 03:03:26;;;;;;;1.37;1.27;;;15.30;73.60;14.10;96374.00;;;;5095463;28;20290;-81
2023/07/27 03:05:58;;;;;;;1.57;1.47;;;15.30;73.60;14.10;96368.00;;;;5084333;28;20228;-80
2023/07/27 03:08:30;;;;;;;1.20;1.10;;;15.30;73.50;14.10;96375.00;;;;5072778;28;20653;-81
2023/07/27 03:11:03;;;;;;;0.90;0.90;;;15.30;73.50;14.10;96373.00;;;;5082879;28;20196;-80
2023/07/27 03:13:32;;;;;;;1.40;1.10;;;15.30;73.50;14.10;96367.00;;;;5073777;28;20310;-81
2023/07/27 03:16:00;;;;;;;1.27;1.00;;;15.30;73.50;14.10;96370.00;;;;5094835;28;20298;-81
2023/07/27 03:18:29;;;;;;;1.40;1.30;;;15.30;73.50;14.00;96361.00;;;;5085208;28;20207;-81
2023/07/27 03:20:56;;;;;;;1.57;1.30;;;15.20;73.50;14.00;96360.00;;;;5081153;28;20196;-82
2023/07/27 03:23:23;;;;;;;1.37;1.27;;;15.20;73.40;14.00;96357.00;;;;5075750;28;20192;-82
2023/07/27 03:25:52;;;;;;;1.50;1.40;;;15.20;73.40;14.00;96361.00;;;;5088918;28;20218;-82
2023/07/27 03:28:19;;;;;;;2.03;1.37;;;15.20;73.40;14.00;96352.00;;;;5086081;28;20210;-80
2023/07/27 03:30:46;;;;;;;1.03;1.03;;;15.20;73.40;13.90;96360.00;;;;5079686;28;20192;-82
2023/07/27 03:33:13;;;;;;;1.30;1.20;;;15.10;73.20;13.90;96352.00;;;;5080659;28;20229;-81
2023/07/27 03:35:41;;;;;;;1.17;1.10;;;15.10;73.00;13.90;96356.00;;;;5073997;28;20214;-81
2023/07/27 03:38:08;;;;;;;2.00;1.30;;;15.10;73.10;13.90;96348.00;;;;5076530;28;20195;-81
2023/07/27 03:40:35;;;;;;;1.30;1.20;;;15.10;73.10;13.90;96350.00;;;;5076027;28;20218;-81
2023/07/27 03:43:04;;;;;;;1.47;1.37;;;15.00;73.20;13.80;96348.00;;;;5076268;28;20663;-81
2023/07/27 03:45:32;;;;;;;1.50;1.40;;;15.00;73.20;13.80;96347.00;;;;5066616;28;20192;-80
2023/07/27 03:48:00;;;;;;;1.60;1.30;;;15.00;73.30;13.80;96340.00;;;;5081930;28;20582;-81
2023/07/27 03:50:28;;;;;;;1.40;1.30;;;15.00;73.50;13.80;96341.00;;;;5074478;28;20198;-82
2023/07/27 03:52:57;;;;;;;1.33;1.03;;;14.90;73.60;13.80;96344.00;;;;5086226;28;20212;-80
2023/07/27 03:55:24;;;;;;;1.30;1.20;;;14.90;73.70;13.80;96341.00;;;;5073901;28;20210;-80
2023/07/27 03:57:52;;;;;;;1.20;1.10;;;14.90;73.70;13.70;96337.00;;;;5074433;28;20220;-80
2023/07/27 04:00:20;;;;;;;1.37;1.27;;;14.90;74.40;13.70;96340.00;;;;5079594;28;20286;-80
2023/07/27 04:02:48;;;;;;;1.10;1.00;;;14.90;74.50;13.70;96334.00;;;;5073885;28;20575;-80
2023/07/27 04:05:15;;;;;;;1.50;1.40;;;14.90;73.90;13.70;96332.00;;;;5074019;28;20196;-81
2023/07/27 04:07:42;;;;;;;1.30;1.20;;;14.90;74.10;13.70;96334.00;;;;5082164;28;20230;-80
2023/07/27 04:10:10;;;;;;;8.93;1.20;;;14.90;74.10;13.80;96333.00;;;;5073476;28;20553;-82
2023/07/27 04:12:37;;;;;;;1.40;1.30;;;14.90;74.20;13.80;96331.00;;;;5082622;28;20203;-80
2023/07/27 04:15:07;;;;;;;1.80;1.13;;;14.90;74.20;13.80;96333.00;;;;5092639;28;20309;-81
2023/07/27 04:17:35;;;;;;;3.07;1.00;;;14.90;74.30;13.80;96329.00;;;;5075977;28;20733;-81
2023/07/27 04:20:03;;;;;;;2.77;1.10;;;14.90;74.30;13.80;96328.00;;;;5073102;28;20189;-80
2023/07/27 04:22:30;;;;;;;3.80;1.30;;;14.90;74.30;13.80;96328.00;;;;5072168;28;20219;-81
2023/07/27 04:24:57;;;;;;;3.00;1.20;;;14.90;74.30;13.80;96331.00;;;;5080182;28;20202;-81
2023/07/27 04:27:24;;;;;;;1.17;1.07;;;14.90;74.30;13.80;96324.00;;;;5087662;28;20211;-81
2023/07/27 04:29:51;;;;;;;2.00;1.50;;;14.90;74.30;13.80;96332.00;;;;5074666;28;20200;-82
2023/07/27 04:32:19;;;;;;;1.40;1.30;;;15.00;74.30;13.80;96328.00;;;;5075178;28;20225;-81
2023/07/27 04:34:47;;;;;;;2.37;1.27;;;15.00;74.30;13.80;96327.00;;;;5075876;28;20211;-83
2023/07/27 04:37:15;;;;;;;1.50;1.40;;;15.00;74.50;13.90;96337.00;;;;5076150;28;20257;-81
2023/07/27 04:39:42;;;;;;;1.63;1.53;;;15.00;74.50;13.90;96336.00;;;;5075632;28;20206;-82
2023/07/27 04:42:09;;;;;;;2.43;1.57;;;15.00;74.50;13.90;96329.00;;;;5077508;28;20204;-83
2023/07/27 04:44:38;;;;;;;2.60;2.00;;;15.00;74.50;13.90;96334.00;;;;5086958;28;20206;-81
2023/07/27 04:47:08;;;;;;;3.40;2.00;;;15.10;74.60;14.00;96327.00;;;;5097013;28;20231;-83
2023/07/27 04:49:35;;;;;;;1.50;1.37;;;15.10;74.70;14.00;96331.00;;;;5089119;28;20238;-84
2023/07/27 04:52:05;;;;;;;1.77;1.67;;;15.20;75.00;14.10;96324.00;;;;5079431;28;20191;-82
2023/07/27 04:54:32;;;;;;;3.47;1.70;;;15.20;75.20;14.10;96333.00;;;;5085551;28;20279;-82
2023/07/27 04:56:59;;;;;;;1.70;1.37;;;15.20;75.30;14.20;96334.00;;;;5077146;28;20707;-81
2023/07/27 04:59:26;;;;;;;2.47;1.37;;;15.30;75.60;14.30;96337.00;;;;5079559;28;20224;-81
2023/07/27 05:01:53;;;;;;;1.90;1.63;;;15.40;75.80;14.40;96338.00;;;;5073586;28;20200;-82
2023/07/27 05:04:20;;;;;;;1.73;1.20;;;15.40;75.90;14.40;96338.00;;;;5077692;28;20263;-84
2023/07/27 05:06:48;;;;;;;1.50;1.40;;;15.50;76.10;14.50;96334.00;;;;5077203;28;20230;-83
2023/07/27 05:09:17;;;;;;;1.97;1.53;;;15.50;76.10;14.60;96339.00;;;;5075442;28;20196;-83
2023/07/27 05:11:44;;;;;;;1.50;1.20;;;15.60;76.10;14.70;96332.00;;;;5076349;28;20680;-84
2023/07/27 05:14:12;;;;;;;1.17;1.07;;;15.70;76.20;14.70;96336.00;;;;5079698;28;20215;-80
2023/07/27 05:16:39;;;;;;;1.23;1.13;;;15.70;76.20;14.80;96335.00;;;;5081721;28;20226;-82
2023/07/27 05:19:07;;;;;;;1.17;1.10;;;15.80;76.10;14.80;96338.00;;;;5078893;28;20203;-82
2023/07/27 05:21:34;;;;;;;1.20;1.10;;;15.80;75.90;14.90;96339.00;;;;5073253;28;20183;-84
2023/07/27 05:24:01;;;;;;;1.20;1.10;;;15.90;76.10;14.90;96326.00;;;;5095506;28;20235;-81
2023/07/27 05:26:30;;;;;;;1.10;1.00;;;15.90;76.10;15.00;96327.00;;;;5084372;28;20222;-81
2023/07/27 05:28:57;;;;;;;1.63;1.53;;;16.00;76.10;15.00;96320.00;;;;5072974;28;20196;-82
2023/07/27 05:31:24;;;;;;;1.50;1.30;;;16.00;76.00;15.10;96317.00;;;;5092358;28;20639;-82
2023/07/27 05:33:51;;;;;;;1.60;1.50;;;16.10;75.90;15.10;96319.00;;;;5079543;28;20220;-81
2023/07/27 05:36:18;;;;;;;1.73;1.37;;;16.10;75.50;15.20;96320.00;;;;5083981;28;20211;-83
2023/07/27 05:38:46;;;;;;;1.30;1.20;;;16.10;75.30;15.20;96314.00;;;;5087881;28;20206;-82
2023/07/27 05:41:13;;;;;;;1.47;1.13;;;16.20;75.30;15.30;96322.00;;;;5089709;28;20191;-81
2023/07/27 05:43:42;;;;;;;1.67;1.13;;;16.20;75.20;15.40;96316.00;;;;5092913;28;20656;-81
2023/07/27 05:46:09;;;;;;;0.90;0.90;;;16.30;75.50;15.40;96317.00;;;;5076791;28;20302;-83
2023/07/27 05:48:37;;;;;;;0.90;0.80;;;16.30;75.50;15.50;96316.00;;;;5091714;28;20198;-82
2023/07/27 05:51:04;;;;;;;1.40;1.30;;;16.40;75.60;15.50;96320.00;;;;5085150;28;20202;-83
2023/07/27 05:53:31;;;;;;;1.27;1.17;;;16.40;75.50;15.60;96324.00;;;;5092704;28;20203;-80
2023/07/27 05:55:58;;;;;;;1.93;1.13;;;16.50;75.40;15.70;96322.00;;;;5075519;28;20300;-83
2023/07/27 05:58:25;;;;;;;1.30;1.20;;;16.50;75.40;15.80;96322.00;;;;5078132;28;20200;-83
2023/07/27 06:01:01;;;;;;;1.70;1.37;;;16.60;75.60;15.80;96325.00;;;;5072609;28;20192;-82
2023/07/27 06:03:28;;;;;;;1.10;1.00;;;16.70;76.00;15.90;96327.00;;;;5074616;28;20241;-82
2023/07/27 06:05:55;;;;;;;1.40;1.30;;;16.80;76.10;16.00;96311.00;;;;5062228;28;20212;-84
2023/07/27 06:08:23;;;;;;;1.10;1.00;;;16.80;76.10;16.10;96329.00;;;;5088803;28;20207;-82
2023/07/27 06:10:59;;;;;;;1.00;1.00;;;16.90;76.40;16.20;96323.00;;;;5077565;28;20660;-82
2023/07/27 06:13:27;;;;;;;1.37;1.10;;;17.00;76.50;16.30;96323.00;;;;5069305;28;20191;-83
2023/07/27 06:15:57;;;;;;;1.83;1.33;;;17.10;76.50;16.40;96323.00;;;;5081745;28;20238;-81
2023/07/27 06:18:25;;;;;;;1.43;1.30;;;17.20;76.60;16.50;96312.00;;;;5077219;28;20192;-84
2023/07/27 06:20:52;;;;;;;2.40;1.60;;;17.30;76.30;16.60;96321.00;;;;5077215;28;20184;-82
2023/07/27 06:23:19;;;;;;;2.50;0.93;;;17.40;76.70;16.70;96330.00;;;;5076882;28;20203;-83
2023/07/27 06:25:47;;;;;;;2.03;1.10;;;17.50;75.70;16.80;96323.00;;;;5069446;28;20211;-85
2023/07/27 06:28:15;;;;;;;1.63;1.30;;;17.60;75.20;16.80;96325.00;;;;5080358;28;20279;-83
2023/07/27 06:30:43;;;;;;;1.37;1.27;;;17.70;75.00;17.00;96323.00;;;;5090582;28;20608;-82
2023/07/27 06:33:11;;;;;;;1.20;1.10;;;17.70;74.70;17.00;96321.00;;;;5086265;28;20280;-81
2023/07/27 06:35:38;;;;;;;1.00;1.00;;;17.80;74.40;17.10;96335.00;;;;5076963;28;20311;-84
2023/07/27 06:38:05;;;;;;;0.97;0.97;;;17.90;74.50;17.20;96333.00;;;;5086172;28;20274;-82
2023/07/27 06:40:33;;;;;;;1.30;1.20;;;17.90;74.50;17.30;96330.00;;;;5078818;28;20200;-81
2023/07/27 06:43:00;;;;;;;1.63;1.03;;;18.00;74.10;17.40;96327.00;;;;5083684;28;20283;-82
2023/07/27 06:45:27;;;;;;;1.10;1.00;;;18.10;73.80;17.40;96328.00;;;;5074483;28;20336;-83
2023/07/27 06:47:55;;;;;;;1.20;1.03;;;18.30;73.90;17.50;96331.00;;;;5087436;28;20290;-83
2023/07/27 06:50:23;;;;;;;1.20;1.10;;;18.30;73.80;17.60;96331.00;;;;5087572;28;20203;-83
2023/07/27 06:52:51;;;;;;;1.47;1.10;;;18.30;73.50;17.70;96322.00;;;;5086093;28;20567;-81
2023/07/27 06:55:18;;;;;;;1.53;1.20;;;18.40;73.70;17.70;96327.00;;;;5094963;28;20222;-81
2023/07/27 06:57:46;;;;;;;1.03;1.03;;;18.50;73.80;17.80;96321.00;;;;5070370;28;20219;-83
2023/07/27 07:00:15;;;;;;;1.83;1.40;;;18.50;73.40;17.90;96315.00;;;;5074808;28;20200;-83
2023/07/27 07:02:42;;;;;;;1.43;1.33;;;18.60;72.80;17.90;96307.00;;;;5092348;28;20203;-81
2023/07/27 07:05:09;;;;;;;1.20;1.00;;;18.70;73.60;18.00;96313.00;;;;5085935;28;20231;-82
2023/07/27 07:07:39;;;;;;;1.33;1.23;;;18.70;72.90;18.00;96310.00;;;;5095006;28;20219;-81
2023/07/27 07:10:07;;;;;;;2.53;1.23;;;18.80;72.50;18.10;96307.00;;;;5073177;28;20204;-82
2023/07/27 07:12:35;;;;;;;1.40;1.30;;;18.90;72.60;18.20;96307.00;;;;5072549;28;20296;-81
2023/07/27 07:15:03;;;;;;;1.70;1.40;;;18.90;72.80;18.30;96309.00;;;;5072457;28;20208;-82
2023/07/27 07:17:30;;;;;;;2.07;1.30;;;19.00;73.00;18.30;96299.00;;;;5080992;28;20208;-82
2023/07/27 07:19:57;;;;;;;1.40;1.30;;;19.10;73.20;18.40;96309.00;;;;5084255;28;20205;-81
2023/07/27 07:22:25;;;;;;;1.20;1.10;;;19.10;73.20;18.50;96309.00;;;;5082066;28;20196;-81
2023/07/27 07:24:53;;;;;;;1.47;1.27;;;19.20;73.00;18.60;96307.00;;;;5085570;28;20206;-80
2023/07/27 07:27:20;;;;;;;1.20;1.10;;;19.30;73.10;18.70;96302.00;;;;5077603;28;20213;-82
2023/07/27 07:29:47;;;;;;;1.80;1.20;;;19.40;72.70;18.80;96311.00;;;;5089907;28;20202;-82
2023/07/27 07:32:15;;;;;;;1.53;1.40;;;19.50;72.70;18.90;96301.00;;;;5082637;28;20200;-81
2023/07/27 07:34:42;;;;;;;1.20;1.10;;;19.60;72.80;19.00;96293.00;;;;5092610;28;20587;-81
2023/07/27 07:37:10;;;;;;;1.27;1.17;;;19.60;72.10;19.10;96301.00;;;;5086290;28;20217;-81
2023/07/27 07:39:37;;;;;;;1.50;1.10;;;19.70;72.20;19.30;96307.00;;;;5084908;28;20234;-80
2023/07/27 07:42:06;;;;;;;1.17;1.00;;;19.80;72.20;19.40;96306.00;;;;5072198;28;20203;-80
2023/07/27 07:44:34;;;;;;;1.23;1.10;;;19.90;72.00;19.50;96304.00;;;;5079898;28;20197;-81
2023/07/27 07:47:01;;;;;;;1.50;1.30;;;20.10;72.40;19.60;96295.00;;;;5067823;28;20214;-80
2023/07/27 07:49:28;;;;;;;2.13;1.17;;;20.20;72.60;19.80;96291.00;;;;5077584;28;20199;-80
2023/07/27 07:51:55;;;;;;;1.90;1.20;;;20.30;71.20;19.90;96288.00;;;;5083253;28;20700;-80
2023/07/27 07:54:23;;;;;;;4.70;1.07;;;20.40;71.40;20.10;96275.00;;;;5085609;28;20207;-82
2023/07/27 07:56:50;;;;;;;1.43;1.10;;;20.60;71.30;20.20;96289.00;;;;5084424;28;20719;-82
2023/07/27 07:59:19;;;;;;;1.20;1.10;;;20.70;70.60;20.40;96279.00;;;;5085739;28;20223;-81
2023/07/27 08:01:46;;;;;;;1.90;1.20;;;20.80;70.50;20.50;96283.00;;;;5074563;28;20200;-81
2023/07/27 08:04:13;;;;;;;1.00;0.90;;;21.00;70.30;20.70;96286.00;;;;5073945;28;20231;-81
2023/07/27 08:06:41;;;;;;;0.90;0.90;;;21.20;69.60;20.80;96279.00;;;;5073709;28;20219;-81
2023/07/27 08:09:09;;;;;;;2.30;1.33;;;21.30;68.80;20.90;96274.00;;;;5073808;28;20199;-81
2023/07/27 08:11:36;;;;;;;1.40;1.30;;;21.40;68.40;21.10;96271.00;;;;5081471;28;20202;-82
2023/07/27 08:14:03;;;;;;;0.90;0.90;;;21.60;69.10;21.20;96267.00;;;;5082281;28;20200;-83
2023/07/27 08:16:32;;;;;;;0.70;0.70;;;21.70;69.70;21.40;96265.00;;;;5073821;28;20215;-82
2023/07/27 08:19:00;;;;;;;1.30;1.20;;;21.80;68.50;21.50;96258.00;;;;5084023;28;20283;-81
2023/07/27 08:21:28;;;;;;;1.30;1.20;;;21.90;67.10;21.60;96257.00;;;;5075889;28;20195;-82
2023/07/27 08:23:56;;;;;;;1.10;1.00;;;22.10;66.60;21.70;96254.00;;;;5087554;28;20191;-81
2023/07/27 08:26:23;;;;;;;1.03;0.97;;;22.20;66.30;21.90;96253.00;;;;5084628;28;20219;-83
2023/07/27 08:28:50;;;;;;;1.20;1.10;;;22.30;65.20;22.00;96257.00;;;;5082154;28;20246;-82
2023/07/27 08:31:17;;;;;;;0.90;0.90;;;22.40;65.20;22.10;96264.00;;;;5086993;28;20200;-82
2023/07/27 08:33:46;;;;;;;0.90;0.90;;;22.50;64.10;22.30;96255.00;;;;5098764;28;20267;-83
2023/07/27 08:36:14;;;;;;;2.63;1.23;;;22.70;62.60;22.40;96257.00;;;;5089118;28;20229;-82
2023/07/27 08:38:41;;;;;;;1.13;1.13;;;22.80;63.30;22.40;96255.00;;;;5098036;28;20202;-82
2023/07/27 08:41:09;;;;;;;1.73;1.10;;;22.90;62.60;22.50;96258.00;;;;5084599;28;20187;-83
2023/07/27 08:43:36;;;;;;;1.27;1.17;;;22.90;62.60;22.60;96250.00;;;;5091675;28;20286;-83
2023/07/27 08:46:04;;;;;;;1.07;1.00;;;23.10;62.00;22.70;96252.00;;;;5085520;28;20755;-83
2023/07/27 08:48:32;;;;;;;1.10;1.00;;;23.20;61.10;22.80;96248.00;;;;5095529;28;20201;-82
2023/07/27 08:51:01;;;;;;;1.00;1.00;;;23.20;60.50;22.90;96248.00;;;;5072109;28;20208;-82
2023/07/27 08:53:30;;;;;;;0.80;0.80;;;23.30;59.90;22.90;96248.00;;;;5095327;28;20212;-81
2023/07/27 08:55:58;;;;;;;1.10;1.10;;;23.40;61.00;23.00;96248.00;;;;5084447;28;20250;-83
2023/07/27 08:58:25;;;;;;;1.13;1.03;;;23.40;60.40;23.10;96245.00;;;;5091381;28;20239;-84
2023/07/27 09:00:53;;;;;;;1.23;1.07;;;23.50;59.90;23.10;96243.00;;;;5090473;28;20215;-83
2023/07/27 09:03:20;;;;;;;1.23;1.13;;;23.60;59.50;23.20;96243.00;;;;5098586;28;20205;-83
2023/07/27 09:05:58;;;;;;;1.10;1.00;;;23.60;59.30;23.20;96236.00;;;;5090382;28;20324;-83
2023/07/27 09:08:29;;;;;;;0.90;0.90;;;23.70;57.80;23.30;96233.00;;;;5099323;28;20284;-84
2023/07/27 09:11:06;;;;;;;0.80;0.80;;;23.70;58.60;23.40;96237.00;;;;5076581;28;20257;-83
2023/07/27 09:13:35;;;;;;;1.73;0.93;;;23.80;58.50;23.40;96232.00;;;;5088731;28;20184;-83
2023/07/27 09:16:05;;;;;;;1.57;1.00;;;23.80;58.00;23.50;96239.00;;;;5075251;28;20647;-83
2023/07/27 09:18:37;;;;;;;0.90;0.90;;;23.90;57.40;23.50;96239.00;;;;5085364;28;20679;-84
2023/07/27 09:21:09;;;;;;;1.33;0.83;;;24.00;56.70;23.50;96236.00;;;;5074942;28;20209;-84
2023/07/27 09:23:39;;;;;;;1.10;1.00;;;24.00;56.40;23.60;96231.00;;;;5070610;28;20201;-82
2023/07/27 09:26:07;;;;;;;1.77;0.90;;;24.00;56.60;23.60;96222.00;;;;5083408;28;20215;-82
2023/07/27 09:28:33;;;;;;;1.10;1.00;;;24.10;56.70;23.70;96219.00;;;;5091870;28;20198;-84
2023/07/27 09:31:02;;;;;;;1.23;1.00;;;24.10;57.20;23.80;96220.00;;;;5092275;28;20253;-82
2023/07/27 09:33:31;;;;;;;0.97;0.97;;;24.20;57.20;23.80;96231.00;;;;5077453;28;20332;-84
2023/07/27 09:35:59;;;;;;;1.17;1.00;;;24.20;56.90;23.90;96222.00;;;;5067443;28;20305;-83
2023/07/27 09:38:27;;;;;;;1.20;1.10;;;24.30;56.40;24.00;96218.00;;;;5074795;28;20657;-81
2023/07/27 09:40:56;;;;;;;1.47;1.37;;;24.40;56.40;24.00;96217.00;;;;5087126;28;20199;-81
2023/07/27 09:43:24;;;;;;;1.03;1.00;;;24.40;56.60;24.10;96215.00;;;;5097033;28;20199;-82
2023/07/27 09:45:58;;;;;;;1.00;0.90;;;24.50;57.20;24.20;96215.00;;;;5077827;28;20227;-82
2023/07/27 09:48:28;;;;;;;0.80;0.80;;;24.60;56.20;24.20;96210.00;;;;5076189;28;20200;-84
2023/07/27 09:50:56;;;;;;;0.80;0.80;;;24.70;56.10;24.30;96216.00;;;;5078066;28;20192;-84
2023/07/27 09:53:24;;;;;;;1.30;0.90;;;24.70;56.00;24.30;96216.00;;;;5085124;28;20203;-83
2023/07/27 09:55:52;;;;;;;0.90;0.90;;;24.70;56.00;24.30;96210.00;;;;5060464;28;20744;-82
2023/07/27 09:58:22;;;;;;;1.47;1.00;;;24.80;56.40;24.40;96205.00;;;;5094438;28;20202;-83
2023/07/27 10:00:49;;;;;;;1.00;0.90;;;24.80;55.10;24.40;96201.00;;;;5083237;28;20202;-83
2023/07/27 10:03:17;;;;;;;1.80;1.07;;;24.90;55.00;24.40;96199.00;;;;5063320;28;20226;-83
2023/07/27 10:05:45;;;;;;;1.17;1.10;;;24.90;54.80;24.40;96192.00;;;;5089893;28;20203;-82
2023/07/27 10:08:13;;;;;;;1.03;1.00;;;24.90;55.10;24.50;96193.00;;;;5075910;28;20230;-82
2023/07/27 10:10:42;;;;;;;0.80;0.80;;;24.90;55.00;24.50;96187.00;;;;5076205;28;20192;-81
2023/07/27 10:13:31;;;;;;;2.37;1.00;;;24.90;54.50;24.50;96182.00;;;;5090440;28;20213;-82
2023/07/27 10:16:02;;;;;;;1.00;0.70;;;24.90;54.50;24.60;96183.00;;;;5081972;28;20223;-83
2023/07/27 10:18:31;;;;;;;1.10;1.00;;;24.90;55.10;24.70;96184.00;;;;5097666;28;20198;-83
2023/07/27 10:21:26;;;;;;;0.90;0.90;;;25.10;55.80;24.70;96181.00;;;;5095042;28;20200;-82
2023/07/27 10:23:59;;;;;;;0.80;0.80;;;25.10;55.20;24.90;96179.00;;;;5094316;28;20199;-83
2023/07/27 10:26:50;;;;;;;1.07;0.90;;;25.20;55.40;25.00;96172.00;;;;5075746;28;20251;-83
2023/07/27 10:29:20;;;;;;;1.20;1.10;;;25.40;55.10;25.10;96169.00;;;;5073726;28;20253;-83
2023/07/27 10:32:01;;;;;;;2.00;0.93;;;25.50;55.10;25.20;96166.00;;;;5094400;28;20250;-83
2023/07/27 10:34:30;;;;;;;1.67;1.43;;;25.60;53.40;25.40;96164.00;;;;5088504;28;20299;-82
2023/07/27 10:37:00;;;;;;;1.20;1.10;;;25.80;54.00;25.50;96164.00;;;;5093528;28;20250;-82
2023/07/27 10:39:31;;;;;;;1.30;1.20;;;25.90;53.50;25.60;96166.00;;;;5083139;28;20199;-84
2023/07/27 10:42:03;;;;;;;1.70;1.10;;;26.00;53.00;25.70;96165.00;;;;5098383;28;20206;-83
2023/07/27 10:44:42;;;;;;;1.10;1.00;;;26.10;52.80;25.80;96175.00;;;;5090783;28;20231;-82
2023/07/27 10:47:13;;;;;;;1.00;0.90;;;26.20;51.20;25.80;96171.00;;;;5076629;28;20311;-82
2023/07/27 10:49:42;;;;;;;0.90;0.90;;;26.30;52.10;25.90;96168.00;;;;5090132;28;20201;-83
2023/07/27 10:52:13;;;;;;;1.60;0.90;;;26.30;52.00;26.00;96164.00;;;;5097812;28;20196;-82
2023/07/27 10:54:42;;;;;;;0.80;0.80;;;26.40;52.00;26.00;96162.00;;;;5093968;28;20210;-83
2023/07/27 10:57:11;;;;;;;0.80;0.80;;;26.40;51.60;26.10;96153.00;;;;5079364;28;20230;-82
2023/07/27 10:59:40;;;;;;;1.37;0.90;;;26.50;51.00;26.10;96151.00;;;;5058687;28;20661;-83
2023/07/27 11:02:17;;;;;;;1.50;1.00;;;26.50;51.10;26.10;96146.00;;;;5088230;28;20686;-83
2023/07/27 11:04:46;;;;;;;1.07;1.00;;;26.50;50.30;26.10;96149.00;;;;5078164;28;20227;-82